createdAt,value
2019-01-03T00:00:01.387Z,96.77
2019-01-03T00:05:01.707Z,97.92
2019-01-03T00:10:01.999Z,97.92
2019-01-03T00:15:01.294Z,98.24
2019-01-03T00:20:01.643Z,97.56
2019-01-03T00:25:01.923Z,99.06
2019-01-03T00:30:01.218Z,97.81
2019-01-03T00:35:01.462Z,98.92
2019-01-03T00:40:01.739Z,98.03
2019-01-03T00:45:02.002Z,99.18
2019-01-03T00:50:01.287Z,99.01
2019-01-03T00:55:01.536Z,96.54
2019-01-03T01:00:01.814Z,98.05
2019-01-03T01:05:02.104Z,99.07
2019-01-03T01:10:01.364Z,97.89
2019-01-03T01:15:01.649Z,98.87
2019-01-03T01:20:01.922Z,97.94
2019-01-03T01:25:01.250Z,98.86
2019-01-03T01:30:01.540Z,97.66
2019-01-03T01:35:01.913Z,98.76
2019-01-03T01:40:02.161Z,97.53
2019-01-03T01:45:01.428Z,98.5
2019-01-03T01:50:01.835Z,95.67
2019-01-03T01:55:02.130Z,98.11
2019-01-03T02:00:01.486Z,98.69
2019-01-03T02:05:01.661Z,98.62
2019-01-03T02:10:01.948Z,95.64
2019-01-03T02:15:01.222Z,97.09
2019-01-03T02:20:01.548Z,98.02
2019-01-03T02:25:01.830Z,98.12
2019-01-03T02:30:02.104Z,98.57
2019-01-03T02:35:01.396Z,98.56
2019-01-03T02:40:01.724Z,95.28
2019-01-03T02:45:02.086Z,96.92
2019-01-03T02:50:01.354Z,97.8
2019-01-03T02:55:01.649Z,98.05
2019-01-03T03:00:01.945Z,98
2019-01-03T03:05:01.247Z,97.58
2019-01-03T03:10:01.542Z,97.55
2019-01-03T03:15:01.802Z,97.53
2019-01-03T03:20:02.084Z,97.67
2019-01-03T03:25:01.395Z,97.72
2019-01-03T03:30:01.641Z,98.08
2019-01-03T03:35:01.898Z,98.26
2019-01-03T03:40:01.517Z,98.38
2019-01-03T03:45:01.358Z,98.43
2019-01-03T03:50:01.664Z,98.1
2019-01-03T03:55:01.935Z,98.08
2019-01-03T04:00:01.232Z,97.99
2019-01-03T04:05:01.524Z,97.88
2019-01-03T04:10:01.794Z,97.86
2019-01-03T04:15:02.168Z,97.82
2019-01-03T04:20:01.488Z,97.28
2019-01-03T04:25:01.819Z,96.38
2019-01-03T04:30:02.055Z,98.31
2019-01-03T04:35:01.359Z,98.06
2019-01-03T04:40:01.659Z,97.53
2019-01-03T04:45:01.924Z,96.15
2019-01-03T04:50:01.208Z,98.14
2019-01-03T04:55:01.524Z,97.71
2019-01-03T05:00:01.821Z,97.23
2019-01-03T05:05:02.089Z,94.8
2019-01-03T05:10:01.342Z,98.33
2019-01-03T05:15:01.645Z,98.02
2019-01-03T05:20:01.927Z,97.27
2019-01-03T05:25:01.194Z,98.21
2019-01-03T05:30:01.487Z,98.08
2019-01-03T05:35:01.915Z,94.46
2019-01-03T05:40:01.893Z,97.95
2019-01-03T05:45:01.212Z,98
2019-01-03T05:50:01.479Z,98.24
2019-01-03T05:55:01.776Z,97.93
2019-01-03T06:00:02.024Z,97.28
2019-01-03T06:05:01.338Z,96.75
2019-01-03T06:10:01.615Z,96.88
2019-01-03T06:15:01.924Z,97.58
2019-01-03T06:20:01.204Z,97.43
2019-01-03T06:25:01.509Z,97.55
2019-01-03T06:30:01.826Z,97.76
2019-01-03T06:35:02.131Z,98.24
2019-01-03T06:40:01.418Z,98.33
2019-01-03T06:45:01.794Z,98.56
2019-01-03T06:50:02.047Z,97.27
2019-01-03T06:55:01.343Z,98.43
2019-01-03T07:00:01.643Z,97.43
2019-01-03T07:05:01.937Z,98.69
2019-01-03T07:10:01.218Z,98.62
2019-01-03T07:15:01.485Z,95.89
2019-01-03T07:20:01.788Z,97.82
2019-01-03T07:25:02.049Z,99.18
2019-01-03T07:30:01.331Z,99.14
2019-01-03T07:35:01.590Z,98.05
2019-01-03T07:40:01.856Z,96.23
2019-01-03T07:45:02.120Z,98.25
2019-01-03T07:50:01.368Z,98.11
2019-01-03T07:55:01.657Z,99.17
2019-01-03T08:00:01.929Z,98.08
2019-01-03T08:05:01.237Z,99.14
2019-01-03T08:10:01.525Z,97.98
2019-01-03T08:15:01.789Z,96.34
2019-01-03T08:20:02.106Z,98.43
2019-01-03T08:25:01.369Z,98.21
2019-01-03T08:30:01.631Z,98.37
2019-01-03T08:35:01.944Z,98.12
2019-01-03T08:40:01.221Z,96.3
2019-01-03T08:45:01.503Z,98.43
2019-01-03T08:50:01.776Z,98.15
2019-01-03T08:55:02.028Z,99.03
2019-01-03T09:00:01.314Z,99.03
2019-01-03T09:05:01.638Z,96.47
2019-01-03T09:10:01.897Z,98.27
2019-01-03T09:15:02.166Z,98.17
2019-01-03T09:20:01.467Z,96.18
2019-01-03T09:25:01.709Z,98.21
2019-01-03T09:30:01.987Z,96.3
2019-01-03T09:35:01.350Z,98.88
2019-01-03T09:40:01.643Z,96.25
2019-01-03T09:45:01.965Z,98.66
2019-01-03T09:50:01.246Z,95.8
2019-01-03T09:55:01.577Z,98.08
2019-01-03T10:00:01.854Z,98.69
2019-01-03T10:05:02.120Z,98.27
2019-01-03T10:10:01.387Z,98.3
2019-01-03T10:15:01.688Z,98.08
2019-01-03T10:20:01.958Z,97.94
2019-01-03T10:25:01.218Z,97.76
2019-01-03T10:30:01.488Z,98.15
2019-01-03T10:35:01.972Z,98.24
2019-01-03T10:40:01.278Z,98.34
2019-01-03T10:45:01.541Z,98.47
2019-01-03T10:50:01.810Z,98.13
2019-01-03T10:55:02.092Z,96.6
2019-01-03T11:00:01.350Z,97.85
2019-01-03T11:05:01.624Z,97.92
2019-01-03T11:10:01.877Z,97.11
2019-01-03T11:15:02.176Z,98.23
2019-01-03T11:20:01.441Z,97.6
2019-01-03T11:25:01.706Z,97.51
2019-01-03T11:30:01.972Z,97.21
2019-01-03T11:35:01.292Z,96.6
2019-01-03T11:40:01.575Z,96.96
2019-01-03T11:45:01.874Z,96.29
2019-01-03T11:50:02.179Z,96.79
2019-01-03T11:55:01.452Z,96.56
2019-01-03T12:00:01.731Z,96.37
2019-01-03T12:05:01.991Z,95.9
2019-01-03T12:10:01.269Z,95.73
2019-01-03T12:15:01.662Z,96.38
2019-01-03T12:20:01.931Z,95.99
2019-01-03T12:25:01.198Z,96.14
2019-01-03T12:30:01.567Z,96.33
2019-01-03T12:35:01.922Z,96.78
2019-01-03T12:40:01.205Z,97.23
2019-01-03T12:45:01.504Z,97.66
2019-01-03T12:50:01.814Z,97.89
2019-01-03T12:55:02.054Z,98.19
2019-01-03T13:00:01.305Z,97.39
2019-01-03T13:05:01.558Z,97.91
2019-01-03T13:10:01.848Z,98.05
2019-01-03T13:15:02.086Z,97.75
2019-01-03T13:20:01.340Z,97.31
2019-01-03T13:25:01.677Z,96.97
2019-01-03T13:30:01.967Z,96.4
2019-01-03T13:35:01.307Z,96.25
2019-01-03T13:40:01.596Z,96.23
2019-01-03T13:45:01.862Z,95.73
2019-01-03T13:50:02.124Z,95.61
2019-01-03T13:55:01.410Z,95.44
2019-01-03T14:00:01.683Z,95.22
2019-01-03T14:05:01.963Z,95.08
2019-01-03T14:10:01.265Z,94.48
2019-01-03T14:15:01.564Z,93.25
2019-01-03T14:20:01.935Z,93.27
2019-01-03T14:25:01.262Z,93.35
2019-01-03T14:30:01.590Z,94.06
2019-01-03T14:35:01.927Z,94.3
2019-01-03T14:40:01.275Z,94.86
2019-01-03T14:45:01.608Z,94.1
2019-01-03T14:50:01.926Z,93.92
2019-01-03T14:55:02.007Z,93.77
2019-01-03T15:00:01.268Z,93.56
2019-01-03T15:05:01.537Z,93.94
2019-01-03T15:10:01.819Z,93.92
2019-01-03T15:15:02.069Z,94.49
2019-01-03T15:20:01.335Z,94.65
2019-01-03T15:25:01.601Z,94.78
2019-01-03T15:30:01.895Z,95.16
2019-01-03T15:35:02.135Z,95.32
2019-01-03T15:40:01.410Z,95.07
2019-01-03T15:45:01.698Z,95.24
2019-01-03T15:50:01.994Z,95.04
2019-01-03T15:55:01.302Z,95.54
2019-01-03T16:00:01.586Z,95.44
2019-01-03T16:05:01.879Z,95.76
2019-01-03T16:10:02.147Z,96.1
2019-01-03T16:15:01.403Z,96.28
2019-01-03T16:20:01.694Z,96.43
2019-01-03T16:25:01.982Z,96.42
2019-01-03T16:30:01.270Z,96.39
2019-01-03T16:35:01.583Z,96.27
2019-01-03T16:40:01.897Z,95.86
2019-01-03T16:45:02.156Z,95.99
2019-01-03T16:50:01.391Z,96.05
2019-01-03T16:55:01.655Z,96.26
2019-01-03T17:00:01.936Z,96.28
2019-01-03T17:05:01.248Z,95.94
2019-01-03T17:10:01.572Z,95.81
2019-01-03T17:15:01.877Z,95.76
2019-01-03T17:20:02.173Z,95.85
2019-01-03T17:25:01.422Z,95.94
2019-01-03T17:30:01.674Z,95.96
2019-01-03T17:35:01.982Z,95.63
2019-01-03T17:40:01.276Z,95.64
2019-01-03T17:45:01.521Z,94.96
2019-01-03T17:50:01.790Z,95.31
2019-01-03T17:55:02.054Z,94.95
2019-01-03T18:00:01.324Z,95.25
2019-01-03T18:05:01.592Z,94.91
2019-01-03T18:10:01.829Z,94.83
2019-01-03T18:15:02.093Z,95.13
2019-01-03T18:20:01.364Z,94.64
2019-01-03T18:25:01.610Z,94.74
2019-01-03T18:30:01.888Z,94.49
2019-01-03T18:35:01.247Z,94.64
2019-01-03T18:40:01.512Z,94.53
2019-01-03T18:45:01.803Z,94.67
2019-01-03T18:50:02.089Z,94.8
2019-01-03T18:55:01.373Z,94.85
2019-01-03T19:00:01.660Z,94.92
2019-01-03T19:05:01.944Z,94.9
2019-01-03T19:10:01.271Z,94.78
2019-01-03T19:15:01.524Z,94.89
2019-01-03T19:20:01.782Z,94.98
2019-01-03T19:25:02.043Z,94.75
2019-01-03T19:30:01.334Z,94.89
2019-01-03T19:35:01.646Z,94.76
2019-01-03T19:40:01.968Z,94.46
2019-01-03T19:45:01.311Z,94.4
2019-01-03T19:50:01.583Z,94.69
2019-01-03T19:55:01.891Z,94.68
2019-01-03T20:00:01.194Z,94.97
2019-01-03T20:05:01.483Z,95.01
2019-01-03T20:10:01.759Z,95.06
2019-01-03T20:15:02.027Z,94.89
2019-01-03T20:20:01.310Z,95.08
2019-01-03T20:25:01.671Z,95.22
2019-01-03T20:30:01.932Z,95.2
2019-01-03T20:35:01.224Z,95.11
2019-01-03T20:40:01.509Z,95.13
2019-01-03T20:45:01.790Z,95.42
2019-01-03T20:50:02.054Z,95.54
2019-01-03T20:55:01.339Z,95.44
2019-01-03T21:00:01.622Z,95.73
2019-01-03T21:05:01.900Z,95.8
2019-01-03T21:10:02.135Z,96.29
2019-01-03T21:15:01.638Z,96.68
2019-01-03T21:20:01.905Z,96.97
2019-01-03T21:25:01.220Z,97.42
2019-01-03T21:30:01.488Z,97.91
2019-01-03T21:35:01.825Z,98.2
2019-01-03T21:40:02.091Z,98.25
2019-01-03T21:45:01.338Z,98.47
2019-01-03T21:50:01.643Z,95.41
2019-01-03T21:55:01.921Z,97.23
2019-01-03T22:00:01.307Z,98.1
2019-01-03T22:05:01.588Z,98.52
2019-01-03T22:10:01.852Z,98.5
2019-01-03T22:15:02.233Z,98.48
2019-01-03T22:20:01.517Z,95.42
2019-01-03T22:25:01.799Z,97.08
2019-01-03T22:30:02.022Z,97.94
2019-01-03T22:35:01.398Z,98.37
2019-01-03T22:40:01.638Z,98.38
2019-01-03T22:45:01.911Z,98.26
2019-01-03T22:50:02.168Z,98.06
2019-01-03T22:55:01.431Z,98.08
2019-01-03T23:00:01.713Z,96.48
2019-01-03T23:05:01.964Z,98.02
2019-01-03T23:10:01.250Z,97.75
2019-01-03T23:15:01.512Z,97.76
2019-01-03T23:20:01.809Z,98.07
2019-01-03T23:25:02.057Z,97.51
2019-01-03T23:30:01.356Z,97.5
2019-01-03T23:35:01.672Z,97.65
2019-01-03T23:40:01.942Z,96.79
2019-01-03T23:45:01.272Z,96.64
2019-01-03T23:50:01.580Z,96.28
2019-01-03T23:55:01.868Z,98.18
